Time,TemperatureF,DewpointF,PressureIn,WindDirection,WindDirectionDegrees,WindSpeedMPH,WindSpeedGustMPH,Humidity,HourlyPrecipIn,Conditions,Clouds,dailyrainin,SoftwareType,DateUTC
2013-05-18 00:02:00,71.0,18.0,29.95,West,272,10.0,12.0,13,-99.99,,,-99.99,,2013-05-18 06:02:00,
2013-05-18 00:11:00,71.0,18.0,29.95,West,272,9.0,10.0,13,-99.99,,,-99.99,,2013-05-18 06:11:00,
2013-05-18 00:22:00,72.0,16.0,29.95,West,270,9.0,10.0,12,-99.99,,,-99.99,,2013-05-18 06:22:00,
2013-05-18 00:32:00,70.0,17.0,29.95,WSW,257,8.0,10.0,13,-99.99,,,-99.99,,2013-05-18 06:32:00,
2013-05-18 00:42:00,72.0,16.0,29.95,WSW,244,8.0,10.0,12,-99.99,,,-99.99,,2013-05-18 06:42:00,
2013-05-18 00:52:00,71.0,16.0,29.95,WSW,247,8.0,9.0,12,-99.99,,,-99.99,,2013-05-18 06:52:00,
2013-05-18 01:01:00,69.0,16.0,29.95,WSW,258,7.0,8.0,13,-99.99,,,-99.99,,2013-05-18 07:01:00,
2013-05-18 01:11:00,68.0,15.0,29.95,West,263,8.0,10.0,13,-99.99,,,-99.99,,2013-05-18 07:11:00,
2013-05-18 01:21:00,68.0,17.0,29.95,West,266,9.0,12.0,14,-99.99,,,-99.99,,2013-05-18 07:21:00,
2013-05-18 01:31:00,69.0,16.0,29.95,WSW,255,7.0,10.0,13,-99.99,,,-99.99,,2013-05-18 07:31:00,
2013-05-18 01:42:00,67.0,16.0,29.96,WSW,240,8.0,10.0,14,-99.99,,,-99.99,,2013-05-18 07:42:00,
2013-05-18 01:52:00,67.0,16.0,29.96,WSW,242,8.0,9.0,14,-99.99,,,-99.99,,2013-05-18 07:52:00,
2013-05-18 02:01:00,67.0,16.0,29.96,WSW,243,9.0,10.0,14,-99.99,,,-99.99,,2013-05-18 08:01:00,
2013-05-18 02:11:00,68.0,17.0,29.96,WSW,248,8.0,9.0,14,-99.99,,,-99.99,,2013-05-18 08:11:00,
2013-05-18 02:21:00,68.0,18.0,29.96,WSW,243,10.0,10.0,15,-99.99,,,-99.99,,2013-05-18 08:21:00,
2013-05-18 02:32:00,68.0,20.0,29.96,WSW,248,9.0,12.0,16,-99.99,,,-99.99,,2013-05-18 08:32:00,
2013-05-18 02:42:00,69.0,21.0,29.96,WSW,250,7.0,10.0,16,-99.99,,,-99.99,,2013-05-18 08:42:00,
2013-05-18 02:52:00,68.0,22.0,29.96,WSW,247,7.0,10.0,17,-99.99,,,-99.99,,2013-05-18 08:52:00,
2013-05-18 03:02:00,68.0,22.0,29.96,WSW,251,7.0,9.0,17,-99.99,,,-99.99,,2013-05-18 09:02:00,
2013-05-18 03:11:00,67.0,22.0,29.96,West,266,8.0,9.0,18,-99.99,,,-99.99,,2013-05-18 09:11:00,
2013-05-18 03:22:00,69.0,23.0,29.96,West,268,8.0,9.0,17,-99.99,,,-99.99,,2013-05-18 09:22:00,
2013-05-18 03:32:00,69.0,22.0,29.96,West,268,7.0,8.0,17,-99.99,,,-99.99,,2013-05-18 09:32:00,
2013-05-18 03:43:00,68.0,23.0,29.97,WNW,293,3.0,6.0,18,-99.99,,,-99.99,,2013-05-18 09:43:00,
2013-05-18 03:53:00,68.0,23.0,29.97,North,8,7.0,8.0,18,-99.99,,,-99.99,,2013-05-18 09:53:00,
2013-05-18 04:03:00,70.0,23.0,29.97,NNW,342,8.0,10.0,17,-99.99,,,-99.99,,2013-05-18 10:03:00,
2013-05-18 04:12:00,71.0,23.0,29.97,WNW,299,10.0,15.0,16,-99.99,,,-99.99,,2013-05-18 10:12:00,
2013-05-18 04:22:00,72.0,23.0,29.97,NW,304,12.0,16.0,16,-99.99,,,-99.99,,2013-05-18 10:22:00,
2013-05-18 04:33:00,71.0,22.0,29.97,NW,314,10.0,13.0,16,-99.99,,,-99.99,,2013-05-18 10:33:00,
2013-05-18 04:42:00,70.0,23.0,29.97,NW,304,9.0,12.0,17,-99.99,,,-99.99,,2013-05-18 10:42:00,
2013-05-18 04:52:00,68.0,22.0,29.98,WNW,294,7.0,9.0,17,-99.99,,,-99.99,,2013-05-18 10:52:00,
2013-05-18 05:03:00,67.0,22.0,29.98,West,264,7.0,8.0,18,-99.99,,,-99.99,,2013-05-18 11:03:00,
2013-05-18 05:12:00,66.0,22.0,29.98,WSW,258,6.0,7.0,19,-99.99,,,-99.99,,2013-05-18 11:12:00,
2013-05-18 05:22:00,66.0,22.0,29.98,WSW,257,6.0,8.0,19,-99.99,,,-99.99,,2013-05-18 11:22:00,
2013-05-18 05:33:00,65.0,22.0,29.99,WSW,256,6.0,8.0,19,-99.99,,,-99.99,,2013-05-18 11:33:00,
2013-05-18 05:42:00,62.0,22.0,29.99,WNW,287,8.0,8.0,21,-99.99,,,-99.99,,2013-05-18 11:42:00,
2013-05-18 05:52:00,64.0,22.0,29.99,WNW,288,8.0,9.0,20,-99.99,,,-99.99,,2013-05-18 11:52:00,
2013-05-18 06:01:00,65.0,21.0,29.99,WNW,286,8.0,10.0,19,-99.99,,,-99.99,,2013-05-18 12:01:00,
2013-05-18 06:12:00,64.0,22.0,29.99,WNW,287,8.0,9.0,20,-99.99,,,-99.99,,2013-05-18 12:12:00,
2013-05-18 06:23:00,65.0,22.0,29.99,WNW,282,8.0,9.0,19,-99.99,,,-99.99,,2013-05-18 12:23:00,
2013-05-18 06:33:00,64.0,22.0,30.00,WNW,282,7.0,8.0,20,-99.99,,,-99.99,,2013-05-18 12:33:00,
2013-05-18 06:42:00,63.0,22.0,30.00,West,280,8.0,9.0,20,-99.99,,,-99.99,,2013-05-18 12:42:00,
2013-05-18 06:52:00,63.0,22.0,30.01,West,281,8.0,9.0,21,-99.99,,,-99.99,,2013-05-18 12:52:00,
2013-05-18 07:01:00,63.0,22.0,30.01,WNW,285,8.0,9.0,21,-99.99,,,-99.99,,2013-05-18 13:01:00,
2013-05-18 07:11:00,62.0,22.0,30.01,West,279,8.0,8.0,21,-99.99,,,-99.99,,2013-05-18 13:11:00,
2013-05-18 07:21:00,62.0,22.0,30.01,West,272,8.0,8.0,21,-99.99,,,-99.99,,2013-05-18 13:21:00,
2013-05-18 07:33:00,62.0,22.0,30.02,West,272,8.0,9.0,21,-99.99,,,-99.99,,2013-05-18 13:33:00,
2013-05-18 07:43:00,62.0,22.0,30.02,WSW,252,5.0,6.0,22,-99.99,,,-99.99,,2013-05-18 13:43:00,
2013-05-18 07:52:00,64.0,23.0,30.03,WSW,249,5.0,7.0,21,-99.99,,,-99.99,,2013-05-18 13:52:00,
2013-05-18 08:03:00,66.0,23.0,30.03,North,0,0.0,3.0,19,-99.99,,,-99.99,,2013-05-18 14:03:00,
2013-05-18 08:12:00,69.0,23.0,30.03,WNW,287,3.0,5.0,18,-99.99,,,-99.99,,2013-05-18 14:12:00,
2013-05-18 08:22:00,70.0,23.0,30.03,WNW,282,6.0,7.0,17,-99.99,,,-99.99,,2013-05-18 14:22:00,
2013-05-18 08:32:00,71.0,24.0,30.03,WNW,293,6.0,8.0,17,-99.99,,,-99.99,,2013-05-18 14:32:00,
2013-05-18 08:42:00,72.0,23.0,30.04,West,267,6.0,8.0,16,-99.99,,,-99.99,,2013-05-18 14:42:00,
2013-05-18 08:54:00,74.0,25.0,30.04,West,278,8.0,12.0,16,-99.99,,,-99.99,,2013-05-18 14:54:00,
2013-05-18 09:03:00,74.0,24.0,30.04,West,280,7.0,10.0,15,-99.99,,,-99.99,,2013-05-18 15:03:00,
2013-05-18 09:13:00,75.0,26.0,30.04,WNW,303,10.0,17.0,16,-99.99,,,-99.99,,2013-05-18 15:13:00,
2013-05-18 09:23:00,77.0,26.0,30.04,WNW,299,17.0,21.0,15,-99.99,,,-99.99,,2013-05-18 15:23:00,
2013-05-18 09:33:00,78.0,28.0,30.04,WNW,301,16.0,22.0,16,-99.99,,,-99.99,,2013-05-18 15:33:00,
2013-05-18 09:43:00,78.0,28.0,30.04,NW,308,13.0,17.0,16,-99.99,,,-99.99,,2013-05-18 15:43:00,
2013-05-18 09:53:00,79.0,30.0,30.04,NW,307,15.0,22.0,17,-99.99,,,-99.99,,2013-05-18 15:53:00,
2013-05-18 10:02:00,79.0,29.0,30.04,WNW,297,14.0,18.0,16,-99.99,,,-99.99,,2013-05-18 16:02:00,
2013-05-18 10:13:00,79.0,30.0,30.04,WNW,290,13.0,20.0,17,-99.99,,,-99.99,,2013-05-18 16:13:00,
2013-05-18 10:22:00,79.0,31.0,30.04,WNW,285,17.0,21.0,17,-99.99,,,-99.99,,2013-05-18 16:22:00,
2013-05-18 10:33:00,79.0,29.0,30.04,WNW,283,17.0,22.0,16,-99.99,,,-99.99,,2013-05-18 16:33:00,
2013-05-18 10:42:00,79.0,29.0,30.03,West,261,12.0,16.0,16,-99.99,,,-99.99,,2013-05-18 16:42:00,
2013-05-18 10:52:00,80.0,30.0,30.03,West,266,15.0,21.0,16,-99.99,,,-99.99,,2013-05-18 16:52:00,
2013-05-18 11:02:00,79.0,29.0,30.03,West,281,12.0,15.0,16,-99.99,,,-99.99,,2013-05-18 17:02:00,
2013-05-18 11:12:00,81.0,29.0,30.03,WNW,292,16.0,24.0,15,-99.99,,,-99.99,,2013-05-18 17:12:00,
2013-05-18 11:22:00,80.0,28.0,30.03,WSW,255,14.0,23.0,15,-99.99,,,-99.99,,2013-05-18 17:22:00,
2013-05-18 11:32:00,80.0,29.0,30.03,WSW,250,16.0,24.0,15,-99.99,,,-99.99,,2013-05-18 17:32:00,
2013-05-18 11:42:00,81.0,29.0,30.02,WSW,257,10.0,17.0,15,-99.99,,,-99.99,,2013-05-18 17:42:00,
2013-05-18 11:52:00,82.0,30.0,30.02,WSW,253,8.0,15.0,15,-99.99,,,-99.99,,2013-05-18 17:52:00,
2013-05-18 12:01:00,81.0,29.0,30.02,West,272,12.0,21.0,15,-99.99,,,-99.99,,2013-05-18 18:01:00,
2013-05-18 12:12:00,82.0,28.0,30.01,WNW,283,10.0,17.0,14,-99.99,,,-99.99,,2013-05-18 18:12:00,
2013-05-18 12:21:00,83.0,29.0,30.01,SW,229,15.0,21.0,14,-99.99,,,-99.99,,2013-05-18 18:21:00,
2013-05-18 12:32:00,82.0,28.0,30.01,West,269,18.0,25.0,14,-99.99,,,-99.99,,2013-05-18 18:32:00,
2013-05-18 12:42:00,83.0,29.0,30.00,SW,230,10.0,21.0,14,-99.99,,,-99.99,,2013-05-18 18:42:00,
2013-05-18 12:52:00,84.0,29.0,30.00,WSW,238,16.0,22.0,14,-99.99,,,-99.99,,2013-05-18 18:52:00,
2013-05-18 13:02:00,83.0,29.0,30.00,NW,311,7.0,9.0,14,-99.99,,,-99.99,,2013-05-18 19:02:00,
2013-05-18 13:12:00,84.0,29.0,29.99,WSW,251,16.0,23.0,14,-99.99,,,-99.99,,2013-05-18 19:12:00,
2013-05-18 13:22:00,83.0,29.0,29.99,West,267,13.0,21.0,14,-99.99,,,-99.99,,2013-05-18 19:22:00,
2013-05-18 13:32:00,85.0,28.0,29.98,WSW,247,14.0,21.0,13,-99.99,,,-99.99,,2013-05-18 19:32:00,
2013-05-18 13:42:00,84.0,28.0,29.98,WSW,256,10.0,22.0,13,-99.99,,,-99.99,,2013-05-18 19:42:00,
2013-05-18 13:52:00,85.0,29.0,29.97,WSW,246,12.0,22.0,13,-99.99,,,-99.99,,2013-05-18 19:52:00,
2013-05-18 14:02:00,86.0,27.0,29.96,West,277,13.0,18.0,12,-99.99,,,-99.99,,2013-05-18 20:02:00,
2013-05-18 14:11:00,86.0,27.0,29.96,SW,219,17.0,24.0,12,-99.99,,,-99.99,,2013-05-18 20:11:00,
2013-05-18 14:22:00,86.0,27.0,29.96,WSW,256,15.0,22.0,12,-99.99,,,-99.99,,2013-05-18 20:22:00,
2013-05-18 14:32:00,85.0,27.0,29.96,SW,235,13.0,17.0,12,-99.99,,,-99.99,,2013-05-18 20:32:00,
2013-05-18 14:42:00,85.0,25.0,29.95,SW,235,15.0,22.0,11,-99.99,,,-99.99,,2013-05-18 20:42:00,
2013-05-18 14:52:00,85.0,27.0,29.95,WSW,249,14.0,18.0,12,-99.99,,,-99.99,,2013-05-18 20:52:00,
2013-05-18 15:01:00,86.0,27.0,29.95,West,270,12.0,21.0,12,-99.99,,,-99.99,,2013-05-18 21:01:00,
2013-05-18 15:12:00,87.0,26.0,29.94,West,274,15.0,21.0,11,-99.99,,,-99.99,,2013-05-18 21:12:00,
2013-05-18 15:21:00,87.0,28.0,29.94,West,270,17.0,27.0,12,-99.99,,,-99.99,,2013-05-18 21:21:00,
2013-05-18 15:32:00,87.0,26.0,29.93,West,268,15.0,23.0,11,-99.99,,,-99.99,,2013-05-18 21:32:00,
2013-05-18 15:43:00,87.0,24.0,29.93,WSW,246,12.0,18.0,10,-99.99,,,-99.99,,2013-05-18 21:43:00,
2013-05-18 15:53:00,87.0,26.0,29.93,WSW,247,13.0,24.0,11,-99.99,,,-99.99,,2013-05-18 21:53:00,
2013-05-18 16:03:00,87.0,26.0,29.92,WSW,242,16.0,25.0,11,-99.99,,,-99.99,,2013-05-18 22:03:00,
2013-05-18 16:12:00,87.0,24.0,29.92,West,263,13.0,20.0,10,-99.99,,,-99.99,,2013-05-18 22:12:00,
2013-05-18 16:23:00,87.0,23.0,29.91,WNW,292,15.0,22.0,10,-99.99,,,-99.99,,2013-05-18 22:23:00,
2013-05-18 16:33:00,87.0,24.0,29.91,SW,230,12.0,17.0,10,-99.99,,,-99.99,,2013-05-18 22:33:00,
2013-05-18 16:42:00,88.0,22.0,29.91,WSW,240,14.0,24.0,9,-99.99,,,-99.99,,2013-05-18 22:42:00,
2013-05-18 16:52:00,88.0,22.0,29.90,West,272,16.0,24.0,9,-99.99,,,-99.99,,2013-05-18 22:52:00,
2013-05-18 17:01:00,87.0,22.0,29.90,West,274,20.0,31.0,9,-99.99,,,-99.99,,2013-05-18 23:01:00,
2013-05-18 17:12:00,87.0,21.0,29.89,WSW,253,15.0,22.0,9,-99.99,,,-99.99,,2013-05-18 23:12:00,
2013-05-18 17:22:00,88.0,22.0,29.89,SW,229,21.0,27.0,9,-99.99,,,-99.99,,2013-05-18 23:22:00,
2013-05-18 17:32:00,88.0,22.0,29.89,WSW,250,16.0,23.0,9,-99.99,,,-99.99,,2013-05-18 23:32:00,
2013-05-18 17:41:00,87.0,22.0,29.88,WSW,252,17.0,27.0,9,-99.99,,,-99.99,,2013-05-18 23:41:00,
2013-05-18 17:52:00,87.0,19.0,29.88,WSW,249,15.0,28.0,8,-99.99,,,-99.99,,2013-05-18 23:52:00,
2013-05-18 18:01:00,87.0,19.0,29.88,WSW,243,20.0,28.0,8,-99.99,,,-99.99,,2013-05-19 00:01:00,
2013-05-18 18:11:00,87.0,19.0,29.87,SW,228,15.0,21.0,8,-99.99,,,-99.99,,2013-05-19 00:11:00,
2013-05-18 18:21:00,88.0,16.0,29.87,WSW,242,16.0,24.0,7,-99.99,,,-99.99,,2013-05-19 00:21:00,
2013-05-18 18:32:00,88.0,16.0,29.87,West,266,14.0,23.0,7,-99.99,,,-99.99,,2013-05-19 00:32:00,
2013-05-18 18:41:00,87.0,15.0,29.87,WSW,248,15.0,22.0,7,-99.99,,,-99.99,,2013-05-19 00:41:00,
2013-05-18 18:51:00,86.0,15.0,29.88,WSW,240,21.0,31.0,7,-99.99,,,-99.99,,2013-05-19 00:51:00,
2013-05-18 19:01:00,86.0,18.0,29.88,WSW,251,16.0,29.0,8,-99.99,,,-99.99,,2013-05-19 01:01:00,
2013-05-18 19:11:00,86.0,18.0,29.88,WSW,248,20.0,31.0,8,-99.99,,,-99.99,,2013-05-19 01:11:00,
2013-05-18 19:21:00,85.0,20.0,29.88,West,267,17.0,31.0,9,-99.99,,,-99.99,,2013-05-19 01:21:00,
2013-05-18 19:32:00,85.0,22.0,29.88,WSW,255,17.0,28.0,10,-99.99,,,-99.99,,2013-05-19 01:32:00,
2013-05-18 19:42:00,84.0,19.0,29.89,WSW,256,16.0,24.0,9,-99.99,,,-99.99,,2013-05-19 01:42:00,
2013-05-18 19:52:00,84.0,19.0,29.89,West,264,17.0,24.0,9,-99.99,,,-99.99,,2013-05-19 01:52:00,
2013-05-18 20:01:00,83.0,18.0,29.89,WSW,247,15.0,23.0,9,-99.99,,,-99.99,,2013-05-19 02:01:00,
2013-05-18 20:11:00,83.0,18.0,29.89,WSW,251,13.0,22.0,9,-99.99,,,-99.99,,2013-05-19 02:11:00,
2013-05-18 20:21:00,82.0,18.0,29.89,WSW,253,12.0,18.0,9,-99.99,,,-99.99,,2013-05-19 02:21:00,
2013-05-18 20:32:00,82.0,17.0,29.90,WSW,253,10.0,14.0,9,-99.99,,,-99.99,,2013-05-19 02:32:00,
2013-05-18 20:42:00,81.0,17.0,29.90,WSW,250,9.0,14.0,9,-99.99,,,-99.99,,2013-05-19 02:42:00,
2013-05-18 20:52:00,80.0,18.0,29.90,WSW,244,9.0,14.0,10,-99.99,,,-99.99,,2013-05-19 02:52:00,
2013-05-18 21:01:00,79.0,18.0,29.90,WSW,242,12.0,15.0,10,-99.99,,,-99.99,,2013-05-19 03:01:00,
2013-05-18 21:11:00,78.0,17.0,29.90,WSW,248,10.0,14.0,10,-99.99,,,-99.99,,2013-05-19 03:11:00,
2013-05-18 21:22:00,78.0,17.0,29.90,WSW,249,10.0,17.0,10,-99.99,,,-99.99,,2013-05-19 03:22:00,
2013-05-18 21:33:00,78.0,19.0,29.91,WSW,256,8.0,14.0,11,-99.99,,,-99.99,,2013-05-19 03:33:00,
2013-05-18 21:42:00,77.0,19.0,29.91,WSW,250,10.0,15.0,11,-99.99,,,-99.99,,2013-05-19 03:42:00,
2013-05-18 21:53:00,77.0,18.0,29.91,WSW,252,8.0,14.0,11,-99.99,,,-99.99,,2013-05-19 03:53:00,
2013-05-18 22:02:00,76.0,18.0,29.91,WSW,249,9.0,14.0,11,-99.99,,,-99.99,,2013-05-19 04:02:00,
2013-05-18 22:12:00,76.0,18.0,29.92,WSW,253,10.0,15.0,11,-99.99,,,-99.99,,2013-05-19 04:12:00,
2013-05-18 22:23:00,76.0,18.0,29.92,WSW,252,10.0,15.0,11,-99.99,,,-99.99,,2013-05-19 04:23:00,
2013-05-18 22:33:00,76.0,18.0,29.93,WSW,255,8.0,13.0,11,-99.99,,,-99.99,,2013-05-19 04:33:00,
2013-05-18 22:42:00,75.0,19.0,29.93,WSW,253,9.0,14.0,12,-99.99,,,-99.99,,2013-05-19 04:42:00,
2013-05-18 22:52:00,74.0,19.0,29.94,WSW,247,9.0,13.0,12,-99.99,,,-99.99,,2013-05-19 04:52:00,
2013-05-18 23:02:00,73.0,18.0,29.94,SW,233,9.0,12.0,12,-99.99,,,-99.99,,2013-05-19 05:02:00,
2013-05-18 23:12:00,73.0,19.0,29.94,WSW,249,6.0,10.0,13,-99.99,,,-99.99,,2013-05-19 05:12:00,
2013-05-18 23:22:00,73.0,19.0,29.94,WSW,256,7.0,10.0,13,-99.99,,,-99.99,,2013-05-19 05:22:00,
2013-05-18 23:32:00,73.0,20.0,29.94,WSW,258,8.0,10.0,13,-99.99,,,-99.99,,2013-05-19 05:32:00,
2013-05-18 23:42:00,73.0,19.0,29.95,West,260,7.0,9.0,13,-99.99,,,-99.99,,2013-05-19 05:42:00,
2013-05-18 23:51:00,72.0,19.0,29.95,WSW,254,6.0,8.0,13,-99.99,,,-99.99,,2013-05-19 05:51:00,